sensor_id;sensor_type;location;lat;lon;timestamp;pressure;altitude;pressure_sealevel;temperature;humidity
76260;BME280;65076;52.362;6.588;2023-07-22T00:00:47;101335.28;;;15.21;68.95
76260;BME280;65076;52.362;6.588;2023-07-22T00:03:15;101332.97;;;15.30;68.73
76260;BME280;65076;52.362;6.588;2023-07-22T00:05:43;101329.34;;;14.99;70.43
76260;BME280;65076;52.362;6.588;2023-07-22T00:08:13;101336.19;;;15.22;69.17
76260;BME280;65076;52.362;6.588;2023-07-22T00:10:41;101331.72;;;15.35;69.41
76260;BME280;65076;52.362;6.588;2023-07-22T00:13:09;101329.91;;;15.50;68.43
76260;BME280;65076;52.362;6.588;2023-07-22T00:15:37;101321.19;;;15.29;68.99
76260;BME280;65076;52.362;6.588;2023-07-22T00:18:05;101328.63;;;15.41;68.39
76260;BME280;65076;52.362;6.588;2023-07-22T00:20:33;101330.16;;;14.86;70.87
76260;BME280;65076;52.362;6.588;2023-07-22T00:23:02;101333.03;;;14.98;71.09
76260;BME280;65076;52.362;6.588;2023-07-22T00:25:31;101330.66;;;14.92;71.50
76260;BME280;65076;52.362;6.588;2023-07-22T00:27:59;101329.16;;;15.02;71.66
76260;BME280;65076;52.362;6.588;2023-07-22T00:30:27;101324.50;;;15.04;71.13
76260;BME280;65076;52.362;6.588;2023-07-22T00:32:55;101334.47;;;14.58;73.14
76260;BME280;65076;52.362;6.588;2023-07-22T00:35:23;101330.50;;;14.48;73.17
76260;BME280;65076;52.362;6.588;2023-07-22T00:37:51;101326.31;;;14.58;72.94
76260;BME280;65076;52.362;6.588;2023-07-22T00:40:19;101324.88;;;14.51;73.50
76260;BME280;65076;52.362;6.588;2023-07-22T00:42:50;101327.31;;;14.40;74.59
76260;BME280;65076;52.362;6.588;2023-07-22T00:45:19;101327.06;;;14.76;73.04
76260;BME280;65076;52.362;6.588;2023-07-22T00:47:47;101324.66;;;15.17;71.50
76260;BME280;65076;52.362;6.588;2023-07-22T00:50:15;101324.25;;;14.77;73.44
76260;BME280;65076;52.362;6.588;2023-07-22T00:52:44;101326.22;;;14.91;72.95
76260;BME280;65076;52.362;6.588;2023-07-22T00:55:12;101327.59;;;14.98;72.58
76260;BME280;65076;52.362;6.588;2023-07-22T00:57:40;101327.75;;;15.11;71.01
76260;BME280;65076;52.362;6.588;2023-07-22T01:00:11;101321.81;;;14.89;72.23
76260;BME280;65076;52.362;6.588;2023-07-22T01:02:40;101321.34;;;15.12;71.52
76260;BME280;65076;52.362;6.588;2023-07-22T01:05:10;101317.69;;;15.27;71.60
76260;BME280;65076;52.362;6.588;2023-07-22T01:07:41;101326.03;;;14.78;72.73
76260;BME280;65076;52.362;6.588;2023-07-22T01:10:10;101319.53;;;14.50;73.93
76260;BME280;65076;52.362;6.588;2023-07-22T01:12:41;101332.47;;;14.29;75.09
76260;BME280;65076;52.362;6.588;2023-07-22T01:15:10;101335.09;;;14.63;74.95
76260;BME280;65076;52.362;6.588;2023-07-22T01:17:38;101334.34;;;14.28;75.08
76260;BME280;65076;52.362;6.588;2023-07-22T01:20:07;101343.28;;;13.97;76.48
76260;BME280;65076;52.362;6.588;2023-07-22T01:22:36;101327.75;;;14.32;75.88
76260;BME280;65076;52.362;6.588;2023-07-22T01:25:08;101329.09;;;14.57;74.59
76260;BME280;65076;52.362;6.588;2023-07-22T01:27:37;101328.97;;;14.27;75.86
76260;BME280;65076;52.362;6.588;2023-07-22T01:30:05;101315.75;;;14.19;76.31
76260;BME280;65076;52.362;6.588;2023-07-22T01:32:36;101319.00;;;14.10;76.73
76260;BME280;65076;52.362;6.588;2023-07-22T01:35:05;101311.19;;;14.20;76.40
76260;BME280;65076;52.362;6.588;2023-07-22T01:37:35;101304.25;;;14.78;74.50
76260;BME280;65076;52.362;6.588;2023-07-22T01:40:04;101303.66;;;15.03;73.51
76260;BME280;65076;52.362;6.588;2023-07-22T01:42:40;101301.19;;;14.53;74.84
76260;BME280;65076;52.362;6.588;2023-07-22T01:45:10;101295.31;;;15.06;72.73
76260;BME280;65076;52.362;6.588;2023-07-22T01:47:39;101299.78;;;15.07;72.87
76260;BME280;65076;52.362;6.588;2023-07-22T01:50:08;101296.97;;;15.09;72.09
76260;BME280;65076;52.362;6.588;2023-07-22T01:52:37;101301.81;;;15.34;71.46
76260;BME280;65076;52.362;6.588;2023-07-22T01:55:06;101292.97;;;15.30;70.94
76260;BME280;65076;52.362;6.588;2023-07-22T01:57:39;101299.00;;;15.35;71.30
76260;BME280;65076;52.362;6.588;2023-07-22T02:00:08;101304.88;;;15.59;70.11
76260;BME280;65076;52.362;6.588;2023-07-22T02:02:38;101302.03;;;15.60;69.87
76260;BME280;65076;52.362;6.588;2023-07-22T02:05:07;101294.03;;;15.57;70.08
76260;BME280;65076;52.362;6.588;2023-07-22T02:07:36;101300.28;;;15.59;69.54
76260;BME280;65076;52.362;6.588;2023-07-22T02:10:06;101296.75;;;15.57;69.30
76260;BME280;65076;52.362;6.588;2023-07-22T02:12:35;101298.91;;;15.52;70.70
76260;BME280;65076;52.362;6.588;2023-07-22T02:15:05;101299.50;;;15.72;69.99
76260;BME280;65076;52.362;6.588;2023-07-22T02:17:35;101298.53;;;15.13;71.61
76260;BME280;65076;52.362;6.588;2023-07-22T02:20:04;101295.31;;;15.06;73.08
76260;BME280;65076;52.362;6.588;2023-07-22T02:22:35;101293.31;;;15.24;72.16
76260;BME280;65076;52.362;6.588;2023-07-22T02:25:03;101293.91;;;15.29;71.63
76260;BME280;65076;52.362;6.588;2023-07-22T02:27:33;101299.59;;;15.40;71.57
76260;BME280;65076;52.362;6.588;2023-07-22T02:30:01;101300.16;;;15.31;71.49
76260;BME280;65076;52.362;6.588;2023-07-22T02:32:32;101294.34;;;15.67;70.57
76260;BME280;65076;52.362;6.588;2023-07-22T02:35:00;101299.28;;;15.60;70.46
76260;BME280;65076;52.362;6.588;2023-07-22T02:37:28;101307.03;;;15.38;70.58
76260;BME280;65076;52.362;6.588;2023-07-22T02:39:56;101310.38;;;14.66;74.54
76260;BME280;65076;52.362;6.588;2023-07-22T02:42:24;101302.75;;;14.41;76.26
76260;BME280;65076;52.362;6.588;2023-07-22T02:44:53;101301.38;;;14.17;76.90
76260;BME280;65076;52.362;6.588;2023-07-22T02:47:21;101303.19;;;14.01;77.77
76260;BME280;65076;52.362;6.588;2023-07-22T02:49:50;101304.38;;;14.28;77.40
76260;BME280;65076;52.362;6.588;2023-07-22T02:52:18;101302.28;;;14.33;76.55
76260;BME280;65076;52.362;6.588;2023-07-22T02:55:06;101307.09;;;14.28;77.11
76260;BME280;65076;52.362;6.588;2023-07-22T02:57:37;101310.59;;;14.30;76.75
76260;BME280;65076;52.362;6.588;2023-07-22T03:00:07;101307.38;;;14.39;77.16
76260;BME280;65076;52.362;6.588;2023-07-22T03:02:38;101309.16;;;14.56;75.82
76260;BME280;65076;52.362;6.588;2023-07-22T03:05:09;101309.06;;;14.73;75.28
76260;BME280;65076;52.362;6.588;2023-07-22T03:07:38;101301.59;;;14.77;75.34
76260;BME280;65076;52.362;6.588;2023-07-22T03:10:07;101304.81;;;14.99;75.12
76260;BME280;65076;52.362;6.588;2023-07-22T03:12:36;101305.44;;;14.89;74.99
76260;BME280;65076;52.362;6.588;2023-07-22T03:15:06;101302.75;;;15.18;74.31
76260;BME280;65076;52.362;6.588;2023-07-22T03:17:36;101299.81;;;14.92;74.64
76260;BME280;65076;52.362;6.588;2023-07-22T03:20:05;101305.56;;;14.56;75.59
76260;BME280;65076;52.362;6.588;2023-07-22T03:22:41;101307.16;;;14.60;76.15
76260;BME280;65076;52.362;6.588;2023-07-22T03:25:10;101303.63;;;14.73;75.88
76260;BME280;65076;52.362;6.588;2023-07-22T03:27:39;101303.69;;;15.33;73.67
76260;BME280;65076;52.362;6.588;2023-07-22T03:30:09;101308.59;;;15.42;72.39
76260;BME280;65076;52.362;6.588;2023-07-22T03:32:41;101309.94;;;15.49;72.69
76260;BME280;65076;52.362;6.588;2023-07-22T03:35:10;101301.34;;;15.27;72.09
76260;BME280;65076;52.362;6.588;2023-07-22T03:37:39;101301.66;;;15.07;74.55
76260;BME280;65076;52.362;6.588;2023-07-22T03:40:08;101303.59;;;15.05;74.25
76260;BME280;65076;52.362;6.588;2023-07-22T03:42:46;101303.56;;;15.35;73.26
76260;BME280;65076;52.362;6.588;2023-07-22T03:45:15;101308.84;;;15.08;73.64
76260;BME280;65076;52.362;6.588;2023-07-22T03:47:44;101304.47;;;15.35;72.94
76260;BME280;65076;52.362;6.588;2023-07-22T03:50:12;101308.91;;;15.22;74.04
76260;BME280;65076;52.362;6.588;2023-07-22T03:52:42;101301.84;;;15.63;71.98
76260;BME280;65076;52.362;6.588;2023-07-22T03:55:10;101301.44;;;15.55;72.00
76260;BME280;65076;52.362;6.588;2023-07-22T03:57:38;101301.72;;;15.65;71.69
76260;BME280;65076;52.362;6.588;2023-07-22T04:00:07;101307.19;;;15.65;71.87
76260;BME280;65076;52.362;6.588;2023-07-22T04:02:36;101307.09;;;15.66;72.26
76260;BME280;65076;52.362;6.588;2023-07-22T04:05:05;101301.47;;;15.70;72.10
76260;BME280;65076;52.362;6.588;2023-07-22T04:07:34;101313.66;;;15.78;71.73
76260;BME280;65076;52.362;6.588;2023-07-22T04:10:04;101315.13;;;15.98;71.22
76260;BME280;65076;52.362;6.588;2023-07-22T04:12:33;101310.78;;;15.65;72.69
76260;BME280;65076;52.362;6.588;2023-07-22T04:15:01;101316.00;;;15.98;71.37
76260;BME280;65076;52.362;6.588;2023-07-22T04:17:29;101307.59;;;15.59;72.03
76260;BME280;65076;52.362;6.588;2023-07-22T04:19:58;101308.41;;;16.03;71.65
76260;BME280;65076;52.362;6.588;2023-07-22T04:22:26;101313.00;;;16.31;70.43
76260;BME280;65076;52.362;6.588;2023-07-22T04:24:56;101313.28;;;16.13;70.44
76260;BME280;65076;52.362;6.588;2023-07-22T04:27:26;101305.97;;;15.99;70.75
76260;BME280;65076;52.362;6.588;2023-07-22T04:29:54;101305.56;;;15.77;72.04
76260;BME280;65076;52.362;6.588;2023-07-22T04:32:22;101306.09;;;16.12;71.42
76260;BME280;65076;52.362;6.588;2023-07-22T04:34:50;101300.03;;;16.21;70.78
76260;BME280;65076;52.362;6.588;2023-07-22T04:37:18;101304.41;;;16.23;71.00
76260;BME280;65076;52.362;6.588;2023-07-22T04:39:48;101300.44;;;16.56;71.04
76260;BME280;65076;52.362;6.588;2023-07-22T04:42:17;101307.69;;;16.28;71.53
76260;BME280;65076;52.362;6.588;2023-07-22T04:44:46;101297.63;;;16.57;70.13
76260;BME280;65076;52.362;6.588;2023-07-22T04:47:14;101294.06;;;16.83;69.29
76260;BME280;65076;52.362;6.588;2023-07-22T04:49:43;101301.41;;;16.54;70.58
76260;BME280;65076;52.362;6.588;2023-07-22T04:52:11;101302.63;;;16.91;67.84
76260;BME280;65076;52.362;6.588;2023-07-22T04:54:41;101303.19;;;17.23;67.88
76260;BME280;65076;52.362;6.588;2023-07-22T04:57:09;101295.19;;;17.20;67.73
76260;BME280;65076;52.362;6.588;2023-07-22T04:59:37;101300.81;;;17.31;66.69
76260;BME280;65076;52.362;6.588;2023-07-22T05:02:06;101308.91;;;17.06;68.11
76260;BME280;65076;52.362;6.588;2023-07-22T05:04:34;101313.47;;;16.93;67.89
76260;BME280;65076;52.362;6.588;2023-07-22T05:07:02;101304.59;;;16.89;68.23
76260;BME280;65076;52.362;6.588;2023-07-22T05:09:30;101299.69;;;16.94;68.65
76260;BME280;65076;52.362;6.588;2023-07-22T05:11:59;101296.88;;;16.69;69.56
76260;BME280;65076;52.362;6.588;2023-07-22T05:14:27;101301.63;;;16.80;69.28
76260;BME280;65076;52.362;6.588;2023-07-22T05:16:55;101297.38;;;16.19;70.53
76260;BME280;65076;52.362;6.588;2023-07-22T05:19:24;101300.28;;;17.00;69.34
76260;BME280;65076;52.362;6.588;2023-07-22T05:21:52;101302.53;;;16.52;70.58
76260;BME280;65076;52.362;6.588;2023-07-22T05:24:20;101310.41;;;16.57;70.61
76260;BME280;65076;52.362;6.588;2023-07-22T05:26:48;101302.06;;;16.86;70.00
76260;BME280;65076;52.362;6.588;2023-07-22T05:29:34;101304.06;;;16.97;69.54
76260;BME280;65076;52.362;6.588;2023-07-22T05:32:02;101304.19;;;16.96;69.58
76260;BME280;65076;52.362;6.588;2023-07-22T05:34:40;101299.63;;;17.09;70.26
76260;BME280;65076;52.362;6.588;2023-07-22T05:37:08;101304.28;;;17.21;69.05
76260;BME280;65076;52.362;6.588;2023-07-22T05:39:36;101311.34;;;17.11;69.30
76260;BME280;65076;52.362;6.588;2023-07-22T05:42:05;101318.63;;;16.98;69.33
76260;BME280;65076;52.362;6.588;2023-07-22T05:44:33;101315.78;;;16.99;70.21
76260;BME280;65076;52.362;6.588;2023-07-22T05:47:01;101312.34;;;17.22;68.67
76260;BME280;65076;52.362;6.588;2023-07-22T05:49:29;101317.03;;;17.47;68.36
76260;BME280;65076;52.362;6.588;2023-07-22T05:51:58;101310.19;;;17.27;69.48
76260;BME280;65076;52.362;6.588;2023-07-22T05:54:26;101312.72;;;17.70;67.92
76260;BME280;65076;52.362;6.588;2023-07-22T05:56:55;101315.50;;;17.56;68.44
76260;BME280;65076;52.362;6.588;2023-07-22T05:59:23;101309.22;;;18.18;66.86
76260;BME280;65076;52.362;6.588;2023-07-22T06:01:51;101304.63;;;18.32;66.61
76260;BME280;65076;52.362;6.588;2023-07-22T06:04:19;101303.84;;;18.30;66.61
76260;BME280;65076;52.362;6.588;2023-07-22T06:06:47;101298.94;;;18.95;64.95
76260;BME280;65076;52.362;6.588;2023-07-22T06:09:16;101291.78;;;19.64;62.59
76260;BME280;65076;52.362;6.588;2023-07-22T06:11:44;101297.38;;;19.51;61.81
76260;BME280;65076;52.362;6.588;2023-07-22T06:14:12;101303.00;;;19.37;62.74
76260;BME280;65076;52.362;6.588;2023-07-22T06:16:40;101295.78;;;19.60;61.25
76260;BME280;65076;52.362;6.588;2023-07-22T06:19:08;101293.44;;;19.77;61.58
76260;BME280;65076;52.362;6.588;2023-07-22T06:21:36;101301.91;;;19.16;62.40
76260;BME280;65076;52.362;6.588;2023-07-22T06:24:05;101294.50;;;19.53;62.31
76260;BME280;65076;52.362;6.588;2023-07-22T06:26:34;101298.53;;;19.71;62.16
76260;BME280;65076;52.362;6.588;2023-07-22T06:29:03;101293.41;;;19.08;64.01
76260;BME280;65076;52.362;6.588;2023-07-22T06:31:31;101300.94;;;18.93;64.89
76260;BME280;65076;52.362;6.588;2023-07-22T06:33:59;101305.63;;;19.03;64.50
76260;BME280;65076;52.362;6.588;2023-07-22T06:36:27;101304.94;;;19.48;64.28
76260;BME280;65076;52.362;6.588;2023-07-22T06:38:55;101318.75;;;18.87;66.01
76260;BME280;65076;52.362;6.588;2023-07-22T06:41:23;101301.38;;;18.99;65.54
76260;BME280;65076;52.362;6.588;2023-07-22T06:44:02;101296.31;;;19.17;65.67
76260;BME280;65076;52.362;6.588;2023-07-22T06:46:30;101292.19;;;19.70;63.30
76260;BME280;65076;52.362;6.588;2023-07-22T06:48:59;101294.84;;;19.83;63.66
76260;BME280;65076;52.362;6.588;2023-07-22T06:51:27;101293.25;;;20.25;61.97
76260;BME280;65076;52.362;6.588;2023-07-22T06:53:55;101296.66;;;20.94;59.43
76260;BME280;65076;52.362;6.588;2023-07-22T06:56:23;101297.28;;;21.20;59.63
76260;BME280;65076;52.362;6.588;2023-07-22T06:58:52;101302.56;;;21.32;58.78
76260;BME280;65076;52.362;6.588;2023-07-22T07:01:21;101300.28;;;20.51;60.83
76260;BME280;65076;52.362;6.588;2023-07-22T07:03:49;101297.75;;;20.59;60.93
76260;BME280;65076;52.362;6.588;2023-07-22T07:06:17;101305.28;;;20.35;62.97
76260;BME280;65076;52.362;6.588;2023-07-22T07:08:45;101295.59;;;20.63;61.17
76260;BME280;65076;52.362;6.588;2023-07-22T07:11:15;101300.50;;;20.59;61.61
76260;BME280;65076;52.362;6.588;2023-07-22T07:13:43;101288.22;;;20.75;60.50
76260;BME280;65076;52.362;6.588;2023-07-22T07:16:23;101297.03;;;21.43;58.61
76260;BME280;65076;52.362;6.588;2023-07-22T07:18:53;101292.81;;;20.96;59.62
76260;BME280;65076;52.362;6.588;2023-07-22T07:21:22;101294.94;;;20.93;60.49
76260;BME280;65076;52.362;6.588;2023-07-22T07:23:51;101294.09;;;21.77;57.62
76260;BME280;65076;52.362;6.588;2023-07-22T07:26:20;101292.53;;;21.42;59.47
76260;BME280;65076;52.362;6.588;2023-07-22T07:28:49;101289.19;;;21.60;57.41
76260;BME280;65076;52.362;6.588;2023-07-22T07:31:18;101289.28;;;22.20;56.47
76260;BME280;65076;52.362;6.588;2023-07-22T07:33:47;101287.16;;;22.64;55.87
76260;BME280;65076;52.362;6.588;2023-07-22T07:36:16;101276.13;;;22.64;55.12
76260;BME280;65076;52.362;6.588;2023-07-22T07:38:44;101282.31;;;22.56;55.05
76260;BME280;65076;52.362;6.588;2023-07-22T07:41:12;101293.06;;;22.50;55.55
76260;BME280;65076;52.362;6.588;2023-07-22T07:43:41;101280.63;;;23.62;51.79
76260;BME280;65076;52.362;6.588;2023-07-22T07:46:14;101281.84;;;24.53;49.63
76260;BME280;65076;52.362;6.588;2023-07-22T07:48:45;101287.00;;;24.29;47.93
76260;BME280;65076;52.362;6.588;2023-07-22T07:51:16;101285.44;;;24.26;47.38
76260;BME280;65076;52.362;6.588;2023-07-22T07:53:45;101286.72;;;23.28;49.88
76260;BME280;65076;52.362;6.588;2023-07-22T07:56:15;101283.94;;;23.37;49.34
76260;BME280;65076;52.362;6.588;2023-07-22T07:58:45;101283.06;;;23.08;49.96
76260;BME280;65076;52.362;6.588;2023-07-22T08:01:15;101284.19;;;22.86;50.58
76260;BME280;65076;52.362;6.588;2023-07-22T08:03:43;101283.97;;;22.68;51.55
76260;BME280;65076;52.362;6.588;2023-07-22T08:06:12;101270.25;;;22.48;52.40
76260;BME280;65076;52.362;6.588;2023-07-22T08:08:45;101284.13;;;22.36;52.68
76260;BME280;65076;52.362;6.588;2023-07-22T08:11:14;101281.94;;;22.61;51.94
76260;BME280;65076;52.362;6.588;2023-07-22T08:13:43;101283.31;;;22.86;50.55
76260;BME280;65076;52.362;6.588;2023-07-22T08:16:12;101277.53;;;22.49;51.96
76260;BME280;65076;52.362;6.588;2023-07-22T08:18:41;101285.72;;;22.69;52.28
76260;BME280;65076;52.362;6.588;2023-07-22T08:21:09;101283.28;;;22.46;52.85
76260;BME280;65076;52.362;6.588;2023-07-22T08:23:39;101281.47;;;23.44;51.13
76260;BME280;65076;52.362;6.588;2023-07-22T08:26:08;101277.25;;;23.78;51.11
76260;BME280;65076;52.362;6.588;2023-07-22T08:28:35;101277.13;;;24.63;47.95
76260;BME280;65076;52.362;6.588;2023-07-22T08:31:03;101276.00;;;24.10;49.01
76260;BME280;65076;52.362;6.588;2023-07-22T08:33:31;101277.22;;;24.99;45.12
76260;BME280;65076;52.362;6.588;2023-07-22T08:36:07;101272.28;;;24.38;45.35
76260;BME280;65076;52.362;6.588;2023-07-22T08:38:35;101273.41;;;23.98;46.10
76260;BME280;65076;52.362;6.588;2023-07-22T08:41:05;101272.13;;;23.83;46.25
76260;BME280;65076;52.362;6.588;2023-07-22T08:43:34;101272.06;;;24.02;45.27
76260;BME280;65076;52.362;6.588;2023-07-22T08:46:07;101272.53;;;24.17;45.36
76260;BME280;65076;52.362;6.588;2023-07-22T08:48:41;101272.88;;;23.08;46.61
76260;BME280;65076;52.362;6.588;2023-07-22T08:51:13;101264.91;;;23.44;46.64
76260;BME280;65076;52.362;6.588;2023-07-22T08:53:44;101268.06;;;22.51;47.26
76260;BME280;65076;52.362;6.588;2023-07-22T08:56:35;101266.50;;;23.08;45.78
76260;BME280;65076;52.362;6.588;2023-07-22T08:59:05;101265.19;;;23.12;45.58
76260;BME280;65076;52.362;6.588;2023-07-22T09:01:34;101270.09;;;23.08;46.69
76260;BME280;65076;52.362;6.588;2023-07-22T09:04:03;101267.75;;;22.75;47.50
76260;BME280;65076;52.362;6.588;2023-07-22T09:06:32;101260.00;;;22.59;46.07
76260;BME280;65076;52.362;6.588;2023-07-22T09:09:01;101271.66;;;22.32;48.07
76260;BME280;65076;52.362;6.588;2023-07-22T09:11:35;101267.84;;;22.64;48.41
76260;BME280;65076;52.362;6.588;2023-07-22T09:14:03;101263.31;;;22.53;47.53
76260;BME280;65076;52.362;6.588;2023-07-22T09:16:32;101266.31;;;22.90;47.68
76260;BME280;65076;52.362;6.588;2023-07-22T09:19:03;101274.06;;;22.26;48.14
76260;BME280;65076;52.362;6.588;2023-07-22T09:21:32;101262.41;;;22.43;47.53
76260;BME280;65076;52.362;6.588;2023-07-22T09:24:19;101267.34;;;22.39;47.19
76260;BME280;65076;52.362;6.588;2023-07-22T09:26:51;101275.69;;;22.28;47.35
76260;BME280;65076;52.362;6.588;2023-07-22T09:29:32;101266.41;;;22.69;48.26
76260;BME280;65076;52.362;6.588;2023-07-22T09:32:02;101258.50;;;23.43;46.47
76260;BME280;65076;52.362;6.588;2023-07-22T09:34:31;101253.81;;;23.82;44.37
76260;BME280;65076;52.362;6.588;2023-07-22T09:36:59;101259.59;;;23.98;44.16
76260;BME280;65076;52.362;6.588;2023-07-22T09:39:28;101246.84;;;23.78;43.35
76260;BME280;65076;52.362;6.588;2023-07-22T09:41:57;101262.13;;;24.29;43.22
76260;BME280;65076;52.362;6.588;2023-07-22T09:44:30;101250.81;;;24.49;42.87
76260;BME280;65076;52.362;6.588;2023-07-22T09:47:05;101251.97;;;24.20;43.58
76260;BME280;65076;52.362;6.588;2023-07-22T09:49:40;101243.69;;;24.47;44.75
76260;BME280;65076;52.362;6.588;2023-07-22T09:52:10;101236.47;;;25.09;43.33
76260;BME280;65076;52.362;6.588;2023-07-22T09:54:46;101244.13;;;25.50;40.58
76260;BME280;65076;52.362;6.588;2023-07-22T09:57:17;101233.72;;;25.70;38.40
76260;BME280;65076;52.362;6.588;2023-07-22T09:59:46;101244.25;;;25.84;40.13
76260;BME280;65076;52.362;6.588;2023-07-22T10:02:18;101247.81;;;25.33;41.12
76260;BME280;65076;52.362;6.588;2023-07-22T10:04:51;101232.59;;;25.81;38.67
76260;BME280;65076;52.362;6.588;2023-07-22T10:07:21;101234.50;;;25.37;40.73
76260;BME280;65076;52.362;6.588;2023-07-22T10:09:49;101234.88;;;25.24;41.53
76260;BME280;65076;52.362;6.588;2023-07-22T10:12:23;101235.69;;;25.16;40.93
76260;BME280;65076;52.362;6.588;2023-07-22T10:14:52;101224.44;;;25.00;40.92
76260;BME280;65076;52.362;6.588;2023-07-22T10:17:21;101227.91;;;24.30;42.81
76260;BME280;65076;52.362;6.588;2023-07-22T10:19:49;101231.69;;;24.83;43.15
76260;BME280;65076;52.362;6.588;2023-07-22T10:22:20;101239.59;;;24.51;43.04
76260;BME280;65076;52.362;6.588;2023-07-22T10:24:49;101234.59;;;24.37;43.22
76260;BME280;65076;52.362;6.588;2023-07-22T10:27:21;101225.28;;;23.91;43.89
76260;BME280;65076;52.362;6.588;2023-07-22T10:29:51;101223.47;;;23.44;45.94
76260;BME280;65076;52.362;6.588;2023-07-22T10:32:22;101224.63;;;23.32;46.28
76260;BME280;65076;52.362;6.588;2023-07-22T10:34:51;101231.34;;;23.39;46.56
76260;BME280;65076;52.362;6.588;2023-07-22T10:37:19;101228.13;;;22.46;47.75
76260;BME280;65076;52.362;6.588;2023-07-22T10:39:51;101228.41;;;22.33;47.31
76260;BME280;65076;52.362;6.588;2023-07-22T10:42:25;101228.59;;;22.11;47.93
76260;BME280;65076;52.362;6.588;2023-07-22T10:44:53;101237.34;;;22.56;47.77
76260;BME280;65076;52.362;6.588;2023-07-22T10:47:34;101223.81;;;22.53;46.48
76260;BME280;65076;52.362;6.588;2023-07-22T10:50:08;101232.50;;;22.38;48.03
76260;BME280;65076;52.362;6.588;2023-07-22T10:52:41;101211.81;;;22.14;48.27
76260;BME280;65076;52.362;6.588;2023-07-22T10:55:15;101224.41;;;22.16;48.60
76260;BME280;65076;52.362;6.588;2023-07-22T10:57:49;101228.44;;;22.43;48.43
76260;BME280;65076;52.362;6.588;2023-07-22T11:00:20;101239.41;;;22.23;49.18
76260;BME280;65076;52.362;6.588;2023-07-22T11:03:09;101228.56;;;22.01;49.13
76260;BME280;65076;52.362;6.588;2023-07-22T11:05:49;101227.22;;;22.35;48.14
76260;BME280;65076;52.362;6.588;2023-07-22T11:08:34;101221.72;;;21.75;50.14
76260;BME280;65076;52.362;6.588;2023-07-22T11:11:04;101211.84;;;22.33;48.91
76260;BME280;65076;52.362;6.588;2023-07-22T11:13:37;101213.25;;;22.18;49.19
76260;BME280;65076;52.362;6.588;2023-07-22T11:16:21;101213.34;;;22.56;48.56
76260;BME280;65076;52.362;6.588;2023-07-22T11:18:49;101217.00;;;22.07;49.39
76260;BME280;65076;52.362;6.588;2023-07-22T11:21:17;101218.84;;;22.37;49.60
76260;BME280;65076;52.362;6.588;2023-07-22T11:23:45;101216.94;;;22.37;49.16
76260;BME280;65076;52.362;6.588;2023-07-22T11:26:13;101215.38;;;22.05;49.48
76260;BME280;65076;52.362;6.588;2023-07-22T11:28:43;101200.88;;;22.52;48.88
76260;BME280;65076;52.362;6.588;2023-07-22T11:31:13;101193.72;;;22.40;48.92
76260;BME280;65076;52.362;6.588;2023-07-22T11:33:44;101199.47;;;22.18;48.61
76260;BME280;65076;52.362;6.588;2023-07-22T11:36:14;101205.25;;;22.15;49.13
76260;BME280;65076;52.362;6.588;2023-07-22T11:38:42;101194.56;;;22.31;48.78
76260;BME280;65076;52.362;6.588;2023-07-22T11:41:10;101190.16;;;22.68;47.93
76260;BME280;65076;52.362;6.588;2023-07-22T11:43:39;101189.28;;;22.68;46.67
76260;BME280;65076;52.362;6.588;2023-07-22T11:46:09;101189.91;;;22.81;46.50
76260;BME280;65076;52.362;6.588;2023-07-22T11:48:37;101201.03;;;22.60;47.09
76260;BME280;65076;52.362;6.588;2023-07-22T11:51:07;101195.03;;;22.36;48.02
76260;BME280;65076;52.362;6.588;2023-07-22T11:53:35;101189.38;;;22.47;47.80
76260;BME280;65076;52.362;6.588;2023-07-22T11:56:03;101191.22;;;22.27;48.21
76260;BME280;65076;52.362;6.588;2023-07-22T11:58:32;101184.81;;;22.17;49.08
76260;BME280;65076;52.362;6.588;2023-07-22T12:01:05;101185.16;;;22.33;48.63
76260;BME280;65076;52.362;6.588;2023-07-22T12:03:36;101186.81;;;22.55;47.95
76260;BME280;65076;52.362;6.588;2023-07-22T12:06:05;101193.50;;;21.82;49.43
76260;BME280;65076;52.362;6.588;2023-07-22T12:08:35;101184.25;;;22.14;49.09
76260;BME280;65076;52.362;6.588;2023-07-22T12:11:03;101189.97;;;22.01;49.55
76260;BME280;65076;52.362;6.588;2023-07-22T12:13:36;101187.47;;;21.68;49.96
76260;BME280;65076;52.362;6.588;2023-07-22T12:16:05;101193.97;;;21.87;49.92
76260;BME280;65076;52.362;6.588;2023-07-22T12:18:44;101194.78;;;22.09;49.51
76260;BME280;65076;52.362;6.588;2023-07-22T12:21:12;101197.00;;;21.64;50.60
76260;BME280;65076;52.362;6.588;2023-07-22T12:23:42;101189.97;;;21.71;49.02
76260;BME280;65076;52.362;6.588;2023-07-22T12:26:10;101196.94;;;21.75;49.63
76260;BME280;65076;52.362;6.588;2023-07-22T12:28:38;101197.97;;;21.32;49.62
76260;BME280;65076;52.362;6.588;2023-07-22T12:31:07;101196.69;;;21.36;49.83
76260;BME280;65076;52.362;6.588;2023-07-22T12:33:36;101209.66;;;21.45;50.49
76260;BME280;65076;52.362;6.588;2023-07-22T12:36:05;101218.03;;;20.91;52.48
76260;BME280;65076;52.362;6.588;2023-07-22T12:38:34;101221.53;;;20.28;59.93
76260;BME280;65076;52.362;6.588;2023-07-22T12:41:02;101233.41;;;20.51;61.47
76260;BME280;65076;52.362;6.588;2023-07-22T12:43:30;101229.41;;;20.55;63.58
76260;BME280;65076;52.362;6.588;2023-07-22T12:45:58;101226.00;;;19.73;65.61
76260;BME280;65076;52.362;6.588;2023-07-22T12:48:26;101225.38;;;19.59;67.25
76260;BME280;65076;52.362;6.588;2023-07-22T12:50:54;101227.16;;;20.15;68.02
76260;BME280;65076;52.362;6.588;2023-07-22T12:53:24;101223.69;;;20.36;67.08
76260;BME280;65076;52.362;6.588;2023-07-22T12:55:52;101221.69;;;19.93;68.33
76260;BME280;65076;52.362;6.588;2023-07-22T12:58:21;101221.94;;;20.46;68.55
76260;BME280;65076;52.362;6.588;2023-07-22T13:00:49;101220.53;;;20.51;68.02
76260;BME280;65076;52.362;6.588;2023-07-22T13:03:17;101225.59;;;20.99;66.16